Time,TemperatureF,DewpointF,PressureIn,WindDirection,WindDirectionDegrees,WindSpeedMPH,WindSpeedGustMPH,Humidity,HourlyPrecipIn,Conditions,Clouds,dailyrainin,SoftwareType,DateUTC
2013-11-14 00:00:00,34.5,14.3,28.64,SSW,202,8.1,13.2,43,0.00,,,0.00,VWS V14.01,2013-11-14 06:00:00,
2013-11-14 00:05:00,34.5,14.3,28.64,SW,225,10.1,10.7,43,0.00,,,0.00,VWS V14.01,2013-11-14 06:05:00,
2013-11-14 00:10:00,34.5,14.3,28.64,SSW,202,10.3,12.3,43,0.00,,,0.00,VWS V14.01,2013-11-14 06:10:00,
2013-11-14 00:15:00,34.7,14.5,28.64,SW,225,10.5,12.8,43,0.00,,,0.00,VWS V14.01,2013-11-14 06:15:00,
2013-11-14 00:20:00,34.7,14.5,28.64,SSW,202,9.8,13.2,43,0.00,,,0.00,VWS V14.01,2013-11-14 06:20:00,
2013-11-14 00:25:00,34.7,14.5,28.64,SSW,202,10.5,14.5,43,0.00,,,0.00,VWS V14.01,2013-11-14 06:25:00,
2013-11-14 00:30:00,34.5,14.3,28.64,SSW,202,9.0,11.2,43,0.00,,,0.00,VWS V14.01,2013-11-14 06:30:00,
2013-11-14 00:35:00,34.5,14.3,28.64,SSW,202,8.1,12.3,43,0.00,,,0.00,VWS V14.01,2013-11-14 06:35:00,
2013-11-14 00:40:00,34.5,14.3,28.61,WSW,248,10.3,10.7,43,0.00,,,0.00,VWS V14.01,2013-11-14 06:40:00,
2013-11-14 00:45:00,34.5,14.3,28.61,SW,225,8.1,12.3,43,0.00,,,0.00,VWS V14.01,2013-11-14 06:45:00,
2013-11-14 00:50:00,34.3,14.2,28.61,SW,225,11.0,11.0,43,0.00,,,0.00,VWS V14.01,2013-11-14 06:50:00,
2013-11-14 00:55:00,34.2,14.0,28.61,SW,225,8.1,12.3,43,0.00,,,0.00,VWS V14.01,2013-11-14 06:55:00,
2013-11-14 01:00:00,34.0,13.9,28.61,SSW,202,8.1,12.8,43,0.00,,,0.00,VWS V14.01,2013-11-14 07:00:00,
2013-11-14 01:05:00,34.0,13.9,28.61,SW,225,11.0,12.8,43,0.00,,,0.00,VWS V14.01,2013-11-14 07:05:00,
2013-11-14 01:10:00,34.0,14.4,28.61,SW,225,7.8,12.1,44,0.00,,,0.00,VWS V14.01,2013-11-14 07:10:00,
2013-11-14 01:15:00,34.0,14.4,28.61,SW,225,6.9,12.1,44,0.00,,,0.00,VWS V14.01,2013-11-14 07:15:00,
2013-11-14 01:20:00,33.8,14.2,28.61,SW,225,10.1,11.9,44,0.00,,,0.00,VWS V14.01,2013-11-14 07:20:00,
2013-11-14 01:25:00,33.8,14.2,28.61,SW,225,9.8,12.3,44,0.00,,,0.00,VWS V14.01,2013-11-14 07:25:00,
2013-11-14 01:30:00,33.6,14.1,28.61,WSW,248,6.3,11.0,44,0.00,,,0.00,VWS V14.01,2013-11-14 07:30:00,
2013-11-14 01:35:00,33.4,13.9,28.61,SW,225,8.7,10.7,44,0.00,,,0.00,VWS V14.01,2013-11-14 07:35:00,
2013-11-14 01:40:00,33.3,14.2,28.61,SSW,202,7.6,10.1,45,0.00,,,0.00,VWS V14.01,2013-11-14 07:40:00,
2013-11-14 01:45:00,33.3,14.2,28.61,SSW,202,8.5,10.7,45,0.00,,,0.00,VWS V14.01,2013-11-14 07:45:00,
2013-11-14 01:50:00,33.1,14.1,28.61,SSW,202,8.1,13.0,45,0.00,,,0.00,VWS V14.01,2013-11-14 07:50:00,
2013-11-14 01:55:00,32.9,14.4,28.61,SSW,202,8.1,10.3,46,0.00,,,0.00,VWS V14.01,2013-11-14 07:55:00,
2013-11-14 02:00:00,32.7,14.2,28.61,SW,225,7.4,8.5,46,0.00,,,0.00,VWS V14.01,2013-11-14 08:00:00,
2013-11-14 02:05:00,32.5,14.1,28.61,SW,225,7.4,9.0,46,0.00,,,0.00,VWS V14.01,2013-11-14 08:05:00,
2013-11-14 02:10:00,32.5,14.6,28.61,SW,225,8.7,10.5,47,0.00,,,0.00,VWS V14.01,2013-11-14 08:10:00,
2013-11-14 02:15:00,32.5,14.6,28.61,SW,225,10.1,10.7,47,0.00,,,0.00,VWS V14.01,2013-11-14 08:15:00,
2013-11-14 02:20:00,32.5,15.0,28.61,SW,225,8.1,10.5,48,0.00,,,0.00,VWS V14.01,2013-11-14 08:20:00,
2013-11-14 02:25:00,32.4,14.9,28.61,SW,225,7.8,10.5,48,0.00,,,0.00,VWS V14.01,2013-11-14 08:25:00,
2013-11-14 02:30:00,32.2,14.7,28.61,SW,225,7.8,9.8,48,0.00,,,0.00,VWS V14.01,2013-11-14 08:30:00,
2013-11-14 02:35:00,32.0,14.6,28.61,SSW,202,7.4,8.7,48,0.00,,,0.00,VWS V14.01,2013-11-14 08:35:00,
2013-11-14 02:40:00,31.8,14.9,28.61,SSW,202,7.4,10.1,49,0.00,,,0.00,VWS V14.01,2013-11-14 08:40:00,
2013-11-14 02:45:00,31.8,14.9,28.61,SSW,202,7.8,10.1,49,0.00,,,0.00,VWS V14.01,2013-11-14 08:45:00,
2013-11-14 02:50:00,31.6,15.1,28.61,SSW,202,11.0,11.0,50,0.00,,,0.00,VWS V14.01,2013-11-14 08:50:00,
2013-11-14 02:55:00,31.8,15.3,28.61,SSW,202,10.3,11.0,50,0.00,,,0.00,VWS V14.01,2013-11-14 08:55:00,
2013-11-14 03:00:00,31.8,15.3,28.61,SSW,202,10.5,12.8,50,0.00,,,0.00,VWS V14.01,2013-11-14 09:00:00,
2013-11-14 03:05:00,31.8,15.3,28.61,SSW,202,10.1,12.8,50,0.00,,,0.00,VWS V14.01,2013-11-14 09:05:00,
2013-11-14 03:10:00,31.8,15.3,28.58,SW,225,7.8,11.0,50,0.00,,,0.00,VWS V14.01,2013-11-14 09:10:00,
2013-11-14 03:15:00,31.6,15.1,28.58,SW,225,9.0,10.5,50,0.00,,,0.00,VWS V14.01,2013-11-14 09:15:00,
2013-11-14 03:20:00,31.6,15.1,28.58,SW,225,10.3,13.4,50,0.00,,,0.00,VWS V14.01,2013-11-14 09:20:00,
2013-11-14 03:25:00,31.5,15.0,28.58,SW,225,8.5,10.3,50,0.00,,,0.00,VWS V14.01,2013-11-14 09:25:00,
2013-11-14 03:30:00,31.1,14.6,28.58,SW,225,8.5,8.7,50,0.00,,,0.00,VWS V14.01,2013-11-14 09:30:00,
2013-11-14 03:35:00,30.9,14.9,28.58,SW,225,8.1,9.0,51,0.00,,,0.00,VWS V14.01,2013-11-14 09:35:00,
2013-11-14 03:40:00,30.7,14.8,28.61,SW,225,9.4,9.4,51,0.00,,,0.00,VWS V14.01,2013-11-14 09:40:00,
2013-11-14 03:45:00,30.6,14.6,28.61,SW,225,7.8,10.5,51,0.00,,,0.00,VWS V14.01,2013-11-14 09:45:00,
2013-11-14 03:50:00,30.6,14.6,28.61,SSW,202,8.1,10.1,51,0.00,,,0.00,VWS V14.01,2013-11-14 09:50:00,
2013-11-14 03:55:00,30.6,14.6,28.58,SSW,202,6.5,8.7,51,0.00,,,0.00,VWS V14.01,2013-11-14 09:55:00,
2013-11-14 04:00:00,30.6,15.0,28.58,SSW,202,10.7,10.7,52,0.00,,,0.00,VWS V14.01,2013-11-14 10:00:00,
2013-11-14 04:05:00,30.4,14.4,28.58,SW,225,5.4,10.7,51,0.00,,,0.00,VWS V14.01,2013-11-14 10:05:00,
2013-11-14 04:10:00,30.2,14.7,28.58,WSW,248,4.3,7.8,52,0.00,,,0.00,VWS V14.01,2013-11-14 10:10:00,
2013-11-14 04:15:00,30.0,14.1,28.58,SW,225,4.0,4.9,51,0.00,,,0.00,VWS V14.01,2013-11-14 10:15:00,
2013-11-14 04:20:00,29.5,13.6,28.58,SW,225,4.0,4.9,51,0.00,,,0.00,VWS V14.01,2013-11-14 10:20:00,
2013-11-14 04:25:00,29.1,13.3,28.58,SW,225,3.8,4.5,51,0.00,,,0.00,VWS V14.01,2013-11-14 10:25:00,
2013-11-14 04:30:00,28.9,13.1,28.58,SW,225,4.9,6.0,51,0.00,,,0.00,VWS V14.01,2013-11-14 10:30:00,
2013-11-14 04:35:00,28.8,13.4,28.58,SW,225,5.8,6.3,52,0.00,,,0.00,VWS V14.01,2013-11-14 10:35:00,
2013-11-14 04:40:00,28.8,13.8,28.58,WSW,248,5.8,6.3,53,0.00,,,0.00,VWS V14.01,2013-11-14 10:40:00,
2013-11-14 04:45:00,28.8,14.2,28.58,SW,225,5.6,6.3,54,0.00,,,0.00,VWS V14.01,2013-11-14 10:45:00,
2013-11-14 04:50:00,28.9,14.4,28.58,SSW,202,5.8,7.2,54,0.00,,,0.00,VWS V14.01,2013-11-14 10:50:00,
2013-11-14 04:55:00,29.1,15.0,28.58,SSW,202,6.5,8.7,55,0.00,,,0.00,VWS V14.01,2013-11-14 10:55:00,
2013-11-14 05:00:00,29.5,15.3,28.58,WSW,248,6.0,8.7,55,0.00,,,0.00,VWS V14.01,2013-11-14 11:00:00,
2013-11-14 05:05:00,29.5,15.3,28.58,SW,225,6.5,7.8,55,0.00,,,0.00,VWS V14.01,2013-11-14 11:05:00,
2013-11-14 05:10:00,29.7,15.5,28.58,SSW,202,8.5,8.5,55,0.00,,,0.00,VWS V14.01,2013-11-14 11:10:00,
2013-11-14 05:15:00,29.8,15.2,28.58,SSW,202,7.8,8.5,54,0.00,,,0.00,VWS V14.01,2013-11-14 11:15:00,
2013-11-14 05:20:00,29.8,15.2,28.58,SSW,202,5.4,7.8,54,0.00,,,0.00,VWS V14.01,2013-11-14 11:20:00,
2013-11-14 05:25:00,29.7,14.6,28.58,SSW,202,6.5,6.5,53,0.00,,,0.00,VWS V14.01,2013-11-14 11:25:00,
2013-11-14 05:30:00,29.7,15.1,28.58,SSW,202,5.8,8.7,54,0.00,,,0.00,VWS V14.01,2013-11-14 11:30:00,
2013-11-14 05:35:00,29.5,14.5,28.58,SW,225,6.3,7.4,53,0.00,,,0.00,VWS V14.01,2013-11-14 11:35:00,
2013-11-14 05:40:00,29.3,14.3,28.58,SW,225,3.8,6.3,53,0.00,,,0.00,VWS V14.01,2013-11-14 11:40:00,
2013-11-14 05:45:00,28.8,13.8,28.58,SSW,202,5.6,5.6,53,0.00,,,0.00,VWS V14.01,2013-11-14 11:45:00,
2013-11-14 05:50:00,28.6,13.6,28.58,SSW,202,4.9,5.6,53,0.00,,,0.00,VWS V14.01,2013-11-14 11:50:00,
2013-11-14 05:55:00,28.9,14.8,28.58,SSW,202,5.4,8.7,55,0.00,,,0.00,VWS V14.01,2013-11-14 11:55:00,
2013-11-14 06:00:00,28.9,14.8,28.58,SSW,202,4.9,8.1,55,0.00,,,0.00,VWS V14.01,2013-11-14 12:00:00,
2013-11-14 06:05:00,28.8,14.2,28.58,SW,225,4.3,5.8,54,0.00,,,0.00,VWS V14.01,2013-11-14 12:05:00,
2013-11-14 06:10:00,28.4,13.9,28.58,WSW,248,3.8,6.0,54,0.00,,,0.00,VWS V14.01,2013-11-14 12:10:00,
2013-11-14 06:15:00,28.0,13.6,28.58,WSW,248,4.3,5.8,54,0.00,,,0.00,VWS V14.01,2013-11-14 12:15:00,
2013-11-14 06:20:00,28.0,13.6,28.58,SSW,202,5.6,5.8,54,0.00,,,0.00,VWS V14.01,2013-11-14 12:20:00,
2013-11-14 06:25:00,28.0,14.0,28.58,SW,225,5.4,6.0,55,0.00,,,0.00,VWS V14.01,2013-11-14 12:25:00,
2013-11-14 06:30:00,28.2,15.0,28.58,SSW,202,6.0,7.2,57,0.00,,,0.00,VWS V14.01,2013-11-14 12:30:00,
2013-11-14 06:35:00,28.4,15.1,28.58,WSW,248,6.0,7.8,57,0.00,,,0.00,VWS V14.01,2013-11-14 12:35:00,
2013-11-14 06:40:00,28.6,15.3,28.58,WSW,248,5.6,8.5,57,0.00,,,0.00,VWS V14.01,2013-11-14 12:40:00,
2013-11-14 06:45:00,28.6,14.9,28.58,SW,225,5.8,7.4,56,0.00,,,0.00,VWS V14.01,2013-11-14 12:45:00,
2013-11-14 06:50:00,28.4,14.7,28.58,WSW,248,6.5,6.9,56,0.00,,,0.00,VWS V14.01,2013-11-14 12:50:00,
2013-11-14 06:55:00,28.4,14.7,28.58,WSW,248,5.4,6.5,56,0.00,,,0.00,VWS V14.01,2013-11-14 12:55:00,
2013-11-14 07:00:00,28.6,15.3,28.58,SW,225,5.8,7.6,57,0.00,,,0.00,VWS V14.01,2013-11-14 13:00:00,
2013-11-14 07:05:00,28.6,15.3,28.58,SW,225,8.1,8.7,57,0.00,,,0.00,VWS V14.01,2013-11-14 13:05:00,
2013-11-14 07:10:00,28.8,15.5,28.58,SW,225,5.6,8.7,57,0.00,,,0.00,VWS V14.01,2013-11-14 13:10:00,
2013-11-14 07:15:00,28.8,15.1,28.58,SW,225,7.8,8.1,56,0.00,,,0.00,VWS V14.01,2013-11-14 13:15:00,
2013-11-14 07:20:00,28.9,15.2,28.58,WSW,248,7.8,8.5,56,0.00,,,0.00,VWS V14.01,2013-11-14 13:20:00,
2013-11-14 07:25:00,28.9,15.2,28.58,WSW,248,6.5,8.5,56,0.00,,,0.00,VWS V14.01,2013-11-14 13:25:00,
2013-11-14 07:30:00,29.3,15.6,28.58,WSW,248,7.6,11.0,56,0.00,,,0.00,VWS V14.01,2013-11-14 13:30:00,
2013-11-14 07:35:00,29.5,15.7,28.58,SW,225,5.8,8.5,56,0.00,,,0.00,VWS V14.01,2013-11-14 13:35:00,
2013-11-14 07:40:00,30.0,15.8,28.58,WSW,248,6.5,8.1,55,0.00,,,0.00,VWS V14.01,2013-11-14 13:40:00,
2013-11-14 07:45:00,30.9,16.7,28.58,WSW,248,8.1,11.0,55,0.00,,,0.00,VWS V14.01,2013-11-14 13:45:00,
2013-11-14 07:50:00,31.6,17.3,28.58,WSW,248,8.5,10.1,55,0.00,,,0.00,VWS V14.01,2013-11-14 13:50:00,
2013-11-14 07:55:00,33.1,17.8,28.58,WSW,248,7.6,10.3,53,0.00,,,0.00,VWS V14.01,2013-11-14 13:55:00,
2013-11-14 08:00:00,34.2,17.9,28.58,WSW,248,7.8,9.8,51,0.00,,,0.00,VWS V14.01,2013-11-14 14:00:00,
2013-11-14 08:05:00,35.2,17.5,28.58,SW,225,10.3,11.0,48,0.00,,,0.00,VWS V14.01,2013-11-14 14:05:00,
2013-11-14 08:10:00,35.4,16.7,28.58,WSW,248,9.0,10.7,46,0.00,,,0.00,VWS V14.01,2013-11-14 14:10:00,
2013-11-14 08:15:00,35.6,16.4,28.58,SW,225,9.6,10.3,45,0.00,,,0.00,VWS V14.01,2013-11-14 14:15:00,
2013-11-14 08:20:00,36.0,16.2,28.58,SW,225,7.6,11.9,44,0.00,,,0.00,VWS V14.01,2013-11-14 14:20:00,
2013-11-14 08:25:00,36.7,16.8,28.61,WSW,248,7.6,11.0,44,0.00,,,0.00,VWS V14.01,2013-11-14 14:25:00,
2013-11-14 08:30:00,37.2,17.3,28.61,WNW,292,5.8,8.7,44,0.00,,,0.00,VWS V14.01,2013-11-14 14:30:00,
2013-11-14 08:35:00,37.9,17.5,28.61,West,270,6.9,10.5,43,0.00,,,0.00,VWS V14.01,2013-11-14 14:35:00,
2013-11-14 08:40:00,37.9,16.9,28.61,WSW,248,8.1,10.7,42,0.00,,,0.00,VWS V14.01,2013-11-14 14:40:00,
2013-11-14 08:45:00,37.6,16.6,28.61,West,270,6.0,9.6,42,0.00,,,0.00,VWS V14.01,2013-11-14 14:45:00,
2013-11-14 08:50:00,37.9,16.9,28.61,SW,225,6.0,9.6,42,0.00,,,0.00,VWS V14.01,2013-11-14 14:50:00,
2013-11-14 08:55:00,38.7,17.6,28.61,WSW,248,5.4,8.7,42,0.00,,,0.00,VWS V14.01,2013-11-14 14:55:00,
2013-11-14 09:00:00,39.7,18.0,28.61,WSW,248,6.3,8.7,41,0.00,,,0.00,VWS V14.01,2013-11-14 15:00:00,
2013-11-14 09:05:00,41.2,18.7,28.61,WSW,248,7.8,8.5,40,0.00,,,0.00,VWS V14.01,2013-11-14 15:05:00,
2013-11-14 09:10:00,41.5,19.0,28.61,West,270,7.6,10.7,40,0.00,,,0.00,VWS V14.01,2013-11-14 15:10:00,
2013-11-14 09:15:00,41.2,18.7,28.61,WSW,248,7.6,8.7,40,0.00,,,0.00,VWS V14.01,2013-11-14 15:15:00,
2013-11-14 09:20:00,40.8,18.4,28.61,SW,225,4.3,7.8,40,0.00,,,0.00,VWS V14.01,2013-11-14 15:20:00,
2013-11-14 09:25:00,41.2,18.7,28.61,WSW,248,5.4,7.8,40,0.00,,,0.00,VWS V14.01,2013-11-14 15:25:00,
2013-11-14 09:30:00,41.5,19.0,28.61,SW,225,7.6,7.6,40,0.00,,,0.00,VWS V14.01,2013-11-14 15:30:00,
2013-11-14 09:35:00,42.3,19.1,28.61,WSW,248,7.8,8.7,39,0.00,,,0.00,VWS V14.01,2013-11-14 15:35:00,
2013-11-14 09:40:00,43.3,20.1,28.61,West,270,7.4,8.5,39,0.00,,,0.00,VWS V14.01,2013-11-14 15:40:00,
2013-11-14 09:45:00,44.6,20.6,28.61,West,270,10.3,10.3,38,0.00,,,0.00,VWS V14.01,2013-11-14 15:45:00,
2013-11-14 09:50:00,45.3,21.2,28.61,West,270,5.8,10.3,38,0.00,,,0.00,VWS V14.01,2013-11-14 15:50:00,
2013-11-14 09:55:00,46.6,21.7,28.61,WSW,248,5.4,8.5,37,0.00,,,0.00,VWS V14.01,2013-11-14 15:55:00,
2013-11-14 10:00:00,46.9,22.0,28.61,SW,225,5.6,6.9,37,0.00,,,0.00,VWS V14.01,2013-11-14 16:00:00,
2013-11-14 10:05:00,46.9,22.0,28.61,WSW,248,7.2,8.5,37,0.00,,,0.00,VWS V14.01,2013-11-14 16:05:00,
2013-11-14 10:10:00,47.3,22.4,28.61,WSW,248,5.4,8.1,37,0.00,,,0.00,VWS V14.01,2013-11-14 16:10:00,
2013-11-14 10:15:00,48.0,23.0,28.61,WSW,248,6.5,7.6,37,0.00,,,0.00,VWS V14.01,2013-11-14 16:15:00,
2013-11-14 10:20:00,48.7,23.0,28.61,WSW,248,6.3,8.5,36,0.00,,,0.00,VWS V14.01,2013-11-14 16:20:00,
2013-11-14 10:25:00,50.0,24.1,28.58,SW,225,4.3,8.5,36,0.00,,,0.00,VWS V14.01,2013-11-14 16:25:00,
2013-11-14 10:30:00,50.4,23.8,28.58,SW,225,6.0,8.5,35,0.00,,,0.00,VWS V14.01,2013-11-14 16:30:00,
2013-11-14 10:35:00,51.4,24.0,28.58,SSW,202,6.3,6.5,34,0.00,,,0.00,VWS V14.01,2013-11-14 16:35:00,
2013-11-14 10:40:00,51.3,23.9,28.58,SSW,202,5.6,7.8,34,0.00,,,0.00,VWS V14.01,2013-11-14 16:40:00,
2013-11-14 10:45:00,51.3,23.2,28.58,SW,225,7.6,9.8,33,0.00,,,0.00,VWS V14.01,2013-11-14 16:45:00,
2013-11-14 10:50:00,52.3,24.1,28.58,SSW,202,5.4,10.3,33,0.00,,,0.00,VWS V14.01,2013-11-14 16:50:00,
2013-11-14 10:55:00,53.6,23.7,28.58,SW,225,7.8,8.7,31,0.00,,,0.00,VWS V14.01,2013-11-14 16:55:00,
2013-11-14 11:00:00,54.5,25.3,28.58,WSW,248,7.6,8.5,32,0.00,,,0.00,VWS V14.01,2013-11-14 17:00:00,
2013-11-14 11:05:00,54.5,23.7,28.58,WSW,248,6.5,9.4,30,0.00,,,0.00,VWS V14.01,2013-11-14 17:05:00,
2013-11-14 11:10:00,54.3,23.6,28.58,WSW,248,10.1,10.3,30,0.00,,,0.00,VWS V14.01,2013-11-14 17:10:00,
2013-11-14 11:15:00,53.8,23.1,28.58,WSW,248,8.1,10.1,30,0.00,,,0.00,VWS V14.01,2013-11-14 17:15:00,
2013-11-14 11:20:00,53.2,22.6,28.58,West,270,6.0,8.1,30,0.00,,,0.00,VWS V14.01,2013-11-14 17:20:00,
2013-11-14 11:25:00,53.1,23.2,28.58,WSW,248,4.3,7.8,31,0.00,,,0.00,VWS V14.01,2013-11-14 17:25:00,
2013-11-14 11:30:00,53.1,23.2,28.58,WNW,292,6.3,7.2,31,0.00,,,0.00,VWS V14.01,2013-11-14 17:30:00,
2013-11-14 11:35:00,54.1,23.4,28.58,WSW,248,5.6,7.6,30,0.00,,,0.00,VWS V14.01,2013-11-14 17:35:00,
2013-11-14 11:40:00,54.0,23.2,28.58,WSW,248,8.1,8.1,30,0.00,,,0.00,VWS V14.01,2013-11-14 17:40:00,
2013-11-14 11:45:00,53.6,22.9,28.58,West,270,6.5,8.1,30,0.00,,,0.00,VWS V14.01,2013-11-14 17:45:00,
2013-11-14 11:50:00,53.1,22.5,28.58,WSW,248,6.0,7.6,30,0.00,,,0.00,VWS V14.01,2013-11-14 17:50:00,
2013-11-14 11:55:00,52.9,23.1,28.58,WSW,248,5.8,7.4,31,0.00,,,0.00,VWS V14.01,2013-11-14 17:55:00,
2013-11-14 12:00:00,53.1,23.2,28.58,WSW,248,4.9,8.1,31,0.00,,,0.00,VWS V14.01,2013-11-14 18:00:00,
2013-11-14 12:05:00,53.4,23.6,28.58,WSW,248,7.2,7.6,31,0.00,,,0.00,VWS V14.01,2013-11-14 18:05:00,
2013-11-14 12:10:00,53.2,23.4,28.55,SSW,202,5.8,7.6,31,0.00,,,0.00,VWS V14.01,2013-11-14 18:10:00,
2013-11-14 12:15:00,53.6,22.9,28.55,SW,225,4.3,6.3,30,0.00,,,0.00,VWS V14.01,2013-11-14 18:15:00,
2013-11-14 12:20:00,54.3,24.4,28.55,SSW,202,4.3,5.6,31,0.00,,,0.00,VWS V14.01,2013-11-14 18:20:00,
2013-11-14 12:25:00,54.5,24.5,28.55,SW,225,6.3,6.3,31,0.00,,,0.00,VWS V14.01,2013-11-14 18:25:00,
2013-11-14 12:30:00,54.5,24.5,28.55,WSW,248,5.4,6.5,31,0.00,,,0.00,VWS V14.01,2013-11-14 18:30:00,
2013-11-14 12:35:00,54.5,24.5,28.55,SW,225,3.1,5.6,31,0.00,,,0.00,VWS V14.01,2013-11-14 18:35:00,
2013-11-14 12:40:00,54.9,24.8,28.55,WSW,248,3.4,6.3,31,0.00,,,0.00,VWS V14.01,2013-11-14 18:40:00,
2013-11-14 12:45:00,55.0,25.0,28.55,SW,225,2.9,6.0,31,0.00,,,0.00,VWS V14.01,2013-11-14 18:45:00,
2013-11-14 12:50:00,55.6,24.7,28.55,WSW,248,5.4,5.6,30,0.00,,,0.00,VWS V14.01,2013-11-14 18:50:00,
2013-11-14 12:55:00,55.9,25.0,28.55,SW,225,4.9,6.0,30,0.00,,,0.00,VWS V14.01,2013-11-14 18:55:00,
2013-11-14 13:00:00,56.3,25.3,28.55,SSW,202,3.6,5.6,30,0.00,,,0.00,VWS V14.01,2013-11-14 19:00:00,
2013-11-14 13:05:00,56.7,26.4,28.55,South,180,6.3,7.4,31,0.00,,,0.00,VWS V14.01,2013-11-14 19:05:00,
2013-11-14 13:10:00,57.2,26.1,28.55,SW,225,4.9,6.5,30,0.00,,,0.00,VWS V14.01,2013-11-14 19:10:00,
2013-11-14 13:15:00,57.2,26.1,28.55,SW,225,3.8,6.5,30,0.00,,,0.00,VWS V14.01,2013-11-14 19:15:00,
2013-11-14 13:20:00,57.2,26.1,28.55,WSW,248,3.8,6.3,30,0.00,,,0.00,VWS V14.01,2013-11-14 19:20:00,
2013-11-14 13:25:00,57.2,26.1,28.55,SW,225,4.0,5.4,30,0.00,,,0.00,VWS V14.01,2013-11-14 19:25:00,
2013-11-14 13:30:00,57.2,26.1,28.55,SW,225,7.4,7.4,30,0.00,,,0.00,VWS V14.01,2013-11-14 19:30:00,
2013-11-14 13:35:00,57.2,26.1,28.55,SSW,202,5.4,7.4,30,0.00,,,0.00,VWS V14.01,2013-11-14 19:35:00,
2013-11-14 13:40:00,57.2,26.1,28.52,SW,225,6.3,6.5,30,0.00,,,0.00,VWS V14.01,2013-11-14 19:40:00,
2013-11-14 13:45:00,57.0,25.9,28.52,SW,225,5.8,7.6,30,0.00,,,0.00,VWS V14.01,2013-11-14 19:45:00,
2013-11-14 13:50:00,56.7,25.6,28.52,SSW,202,6.0,7.8,30,0.00,,,0.00,VWS V14.01,2013-11-14 19:50:00,
2013-11-14 13:55:00,56.5,25.4,28.52,SSW,202,6.3,7.4,30,0.00,,,0.00,VWS V14.01,2013-11-14 19:55:00,
2013-11-14 14:00:00,56.1,25.1,28.52,SW,225,6.5,7.6,30,0.00,,,0.00,VWS V14.01,2013-11-14 20:00:00,
2013-11-14 14:05:00,55.9,25.0,28.52,SW,225,7.4,8.1,30,0.00,,,0.00,VWS V14.01,2013-11-14 20:05:00,
2013-11-14 14:10:00,56.1,25.1,28.52,SW,225,6.5,8.5,30,0.00,,,0.00,VWS V14.01,2013-11-14 20:10:00,
2013-11-14 14:15:00,56.3,25.3,28.52,SW,225,6.3,7.8,30,0.00,,,0.00,VWS V14.01,2013-11-14 20:15:00,
2013-11-14 14:20:00,56.7,25.6,28.52,WSW,248,6.5,8.1,30,0.00,,,0.00,VWS V14.01,2013-11-14 20:20:00,
2013-11-14 14:25:00,57.0,25.9,28.52,SSW,202,6.0,8.1,30,0.00,,,0.00,VWS V14.01,2013-11-14 20:25:00,
2013-11-14 14:30:00,57.4,26.2,28.52,SSW,202,6.0,8.1,30,0.00,,,0.00,VWS V14.01,2013-11-14 20:30:00,
2013-11-14 14:35:00,57.7,26.5,28.52,SW,225,4.9,8.5,30,0.00,,,0.00,VWS V14.01,2013-11-14 20:35:00,
2013-11-14 14:40:00,57.7,26.5,28.55,SW,225,3.8,8.1,30,0.00,,,0.00,VWS V14.01,2013-11-14 20:40:00,
2013-11-14 14:45:00,57.4,26.2,28.55,SSW,202,6.3,8.5,30,0.00,,,0.00,VWS V14.01,2013-11-14 20:45:00,
2013-11-14 14:50:00,56.8,25.8,28.55,SW,225,6.7,8.1,30,0.00,,,0.00,VWS V14.01,2013-11-14 20:50:00,
2013-11-14 14:55:00,56.7,25.6,28.55,SW,225,5.6,8.1,30,0.00,,,0.00,VWS V14.01,2013-11-14 20:55:00,
2013-11-14 15:00:00,56.3,25.3,28.55,SW,225,6.3,7.6,30,0.00,,,0.00,VWS V14.01,2013-11-14 21:00:00,
2013-11-14 15:05:00,56.1,25.1,28.55,SW,225,6.5,7.4,30,0.00,,,0.00,VWS V14.01,2013-11-14 21:05:00,
2013-11-14 15:10:00,55.9,25.8,28.55,SW,225,5.6,7.8,31,0.00,,,0.00,VWS V14.01,2013-11-14 21:10:00,
2013-11-14 15:15:00,55.8,25.6,28.55,SW,225,7.4,7.4,31,0.00,,,0.00,VWS V14.01,2013-11-14 21:15:00,
2013-11-14 15:20:00,55.8,25.6,28.55,SW,225,5.6,8.1,31,0.00,,,0.00,VWS V14.01,2013-11-14 21:20:00,
2013-11-14 15:25:00,55.8,25.6,28.52,SSW,202,6.3,7.4,31,0.00,,,0.00,VWS V14.01,2013-11-14 21:25:00,
2013-11-14 15:30:00,55.8,25.6,28.52,SW,225,4.9,6.3,31,0.00,,,0.00,VWS V14.01,2013-11-14 21:30:00,
2013-11-14 15:35:00,55.8,25.6,28.52,WSW,248,4.7,6.0,31,0.00,,,0.00,VWS V14.01,2013-11-14 21:35:00,
2013-11-14 15:40:00,55.8,26.4,28.52,SW,225,4.9,6.5,32,0.00,,,0.00,VWS V14.01,2013-11-14 21:40:00,
2013-11-14 15:45:00,55.6,26.2,28.52,SW,225,5.6,6.5,32,0.00,,,0.00,VWS V14.01,2013-11-14 21:45:00,
2013-11-14 15:50:00,55.4,26.0,28.52,SW,225,4.9,6.3,32,0.00,,,0.00,VWS V14.01,2013-11-14 21:50:00,
2013-11-14 15:55:00,55.2,25.9,28.52,SW,225,3.6,4.9,32,0.00,,,0.00,VWS V14.01,2013-11-14 21:55:00,
2013-11-14 16:00:00,54.9,26.3,28.52,SW,225,5.6,5.8,33,0.00,,,0.00,VWS V14.01,2013-11-14 22:00:00,
2013-11-14 16:05:00,54.3,25.9,28.52,SW,225,4.3,6.0,33,0.00,,,0.00,VWS V14.01,2013-11-14 22:05:00,
2013-11-14 16:10:00,54.0,25.5,28.52,SSW,202,3.4,6.3,33,0.00,,,0.00,VWS V14.01,2013-11-14 22:10:00,
2013-11-14 16:15:00,53.8,25.4,28.52,SSW,202,3.4,5.8,33,0.00,,,0.00,VWS V14.01,2013-11-14 22:15:00,
2013-11-14 16:20:00,53.4,25.8,28.52,SW,225,3.6,4.3,34,0.00,,,0.00,VWS V14.01,2013-11-14 22:20:00,
2013-11-14 16:25:00,53.2,26.3,28.55,WSW,248,3.8,4.9,35,0.00,,,0.00,VWS V14.01,2013-11-14 22:25:00,
2013-11-14 16:30:00,52.9,26.7,28.55,SW,225,3.6,5.4,36,0.00,,,0.00,VWS V14.01,2013-11-14 22:30:00,
2013-11-14 16:35:00,52.5,26.4,28.55,SW,225,3.8,4.7,36,0.00,,,0.00,VWS V14.01,2013-11-14 22:35:00,
2013-11-14 16:40:00,52.5,26.4,28.55,WSW,248,4.3,4.3,36,0.00,,,0.00,VWS V14.01,2013-11-14 22:40:00,
2013-11-14 16:45:00,52.3,26.2,28.55,WSW,248,4.3,4.9,36,0.00,,,0.00,VWS V14.01,2013-11-14 22:45:00,
2013-11-14 16:50:00,51.8,25.7,28.55,WSW,248,3.8,4.3,36,0.00,,,0.00,VWS V14.01,2013-11-14 22:50:00,
2013-11-14 16:55:00,51.4,26.0,28.55,SW,225,3.6,4.3,37,0.00,,,0.00,VWS V14.01,2013-11-14 22:55:00,
2013-11-14 17:00:00,50.5,25.2,28.55,SW,225,3.6,4.0,37,0.00,,,0.00,VWS V14.01,2013-11-14 23:00:00,
2013-11-14 17:05:00,49.8,24.6,28.55,SW,225,3.6,4.0,37,0.00,,,0.00,VWS V14.01,2013-11-14 23:05:00,
2013-11-14 17:10:00,49.1,24.0,28.55,SSW,202,4.0,4.3,37,0.00,,,0.00,VWS V14.01,2013-11-14 23:10:00,
2013-11-14 17:15:00,48.2,23.8,28.55,SSW,202,4.5,5.6,38,0.00,,,0.00,VWS V14.01,2013-11-14 23:15:00,
2013-11-14 17:20:00,47.5,23.2,28.55,SSW,202,4.7,4.7,38,0.00,,,0.00,VWS V14.01,2013-11-14 23:20:00,
2013-11-14 17:25:00,47.1,23.5,28.55,SW,225,4.9,5.6,39,0.00,,,0.00,VWS V14.01,2013-11-14 23:25:00,
2013-11-14 17:30:00,46.0,22.5,28.55,SW,225,5.4,5.4,39,0.00,,,0.00,VWS V14.01,2013-11-14 23:30:00,
2013-11-14 17:35:00,45.1,22.3,28.55,SW,225,4.9,5.6,40,0.00,,,0.00,VWS V14.01,2013-11-14 23:35:00,
2013-11-14 17:40:00,44.6,22.4,28.55,WSW,248,4.9,6.3,41,0.00,,,0.00,VWS V14.01,2013-11-14 23:40:00,
2013-11-14 17:45:00,44.1,23.0,28.55,WSW,248,4.9,6.5,43,0.00,,,0.00,VWS V14.01,2013-11-14 23:45:00,
2013-11-14 17:50:00,43.3,22.4,28.55,WSW,248,4.0,5.4,43,0.00,,,0.00,VWS V14.01,2013-11-14 23:50:00,
2013-11-14 17:55:00,42.6,22.2,28.55,WSW,248,4.3,5.4,44,0.00,,,0.00,VWS V14.01,2013-11-14 23:55:00,
2013-11-14 18:00:00,42.3,22.5,28.55,WSW,248,4.9,5.8,45,0.00,,,0.00,VWS V14.01,2013-11-15 00:00:00,
2013-11-14 18:05:00,41.9,22.6,28.55,SW,225,4.7,6.0,46,0.00,,,0.00,VWS V14.01,2013-11-15 00:05:00,
2013-11-14 18:10:00,40.8,21.1,28.55,SW,225,4.7,4.7,45,0.00,,,0.00,VWS V14.01,2013-11-15 00:10:00,
2013-11-14 18:15:00,40.1,21.0,28.55,WSW,248,4.5,5.4,46,0.00,,,0.00,VWS V14.01,2013-11-15 00:15:00,
2013-11-14 18:20:00,39.7,21.7,28.55,WSW,248,4.3,5.6,48,0.00,,,0.00,VWS V14.01,2013-11-15 00:20:00,
2013-11-14 18:25:00,39.4,21.8,28.55,WSW,248,5.6,5.8,49,0.00,,,0.00,VWS V14.01,2013-11-15 00:25:00,
2013-11-14 18:30:00,39.4,22.8,28.55,WSW,248,6.3,6.5,51,0.00,,,0.00,VWS V14.01,2013-11-15 00:30:00,
2013-11-14 18:35:00,39.7,24.0,28.55,WSW,248,5.6,8.7,53,0.00,,,0.00,VWS V14.01,2013-11-15 00:35:00,
2013-11-14 18:40:00,39.9,24.2,28.55,WSW,248,6.3,6.5,53,0.00,,,0.00,VWS V14.01,2013-11-15 00:40:00,
2013-11-14 18:45:00,39.7,23.6,28.55,SW,225,5.8,6.5,52,0.00,,,0.00,VWS V14.01,2013-11-15 00:45:00,
2013-11-14 18:50:00,39.0,22.4,28.55,SW,225,5.4,6.0,51,0.00,,,0.00,VWS V14.01,2013-11-15 00:50:00,
2013-11-14 18:55:00,38.3,21.8,28.55,SW,225,5.4,5.8,51,0.00,,,0.00,VWS V14.01,2013-11-15 00:55:00,
2013-11-14 19:00:00,38.1,22.1,28.55,SW,225,5.4,6.5,52,0.00,,,0.00,VWS V14.01,2013-11-15 01:00:00,
2013-11-14 19:05:00,38.3,22.7,28.55,SW,225,3.8,6.5,53,0.00,,,0.00,VWS V14.01,2013-11-15 01:05:00,
2013-11-14 19:10:00,37.9,22.4,28.55,SSW,202,4.3,4.5,53,0.00,,,0.00,VWS V14.01,2013-11-15 01:10:00,
2013-11-14 19:15:00,37.4,21.9,28.55,SW,225,4.9,5.8,53,0.00,,,0.00,VWS V14.01,2013-11-15 01:15:00,
2013-11-14 19:20:00,37.6,22.9,28.55,SSW,202,6.5,7.4,55,0.00,,,0.00,VWS V14.01,2013-11-15 01:20:00,
2013-11-14 19:25:00,37.9,24.1,28.55,SSW,202,5.6,6.7,57,0.00,,,0.00,VWS V14.01,2013-11-15 01:25:00,
2013-11-14 19:30:00,37.9,23.7,28.55,SSW,202,5.6,6.3,56,0.00,,,0.00,VWS V14.01,2013-11-15 01:30:00,
2013-11-14 19:35:00,37.6,22.9,28.55,SW,225,5.4,5.6,55,0.00,,,0.00,VWS V14.01,2013-11-15 01:35:00,
2013-11-14 19:40:00,37.2,22.1,28.55,SW,225,4.9,5.6,54,0.00,,,0.00,VWS V14.01,2013-11-15 01:40:00,
2013-11-14 19:45:00,36.7,21.6,28.55,SW,225,4.9,5.6,54,0.00,,,0.00,VWS V14.01,2013-11-15 01:45:00,
2013-11-14 19:50:00,36.5,21.5,28.55,SW,225,6.3,6.3,54,0.00,,,0.00,VWS V14.01,2013-11-15 01:50:00,
2013-11-14 19:55:00,36.3,21.7,28.55,WSW,248,3.4,6.3,55,0.00,,,0.00,VWS V14.01,2013-11-15 01:55:00,
2013-11-14 20:00:00,35.8,21.2,28.55,WSW,248,4.9,5.4,55,0.00,,,0.00,VWS V14.01,2013-11-15 02:00:00,
2013-11-14 20:05:00,36.0,21.8,28.55,WSW,248,4.3,6.3,56,0.00,,,0.00,VWS V14.01,2013-11-15 02:05:00,
2013-11-14 20:10:00,35.6,21.9,28.55,SW,225,4.7,5.4,57,0.00,,,0.00,VWS V14.01,2013-11-15 02:10:00,
2013-11-14 20:15:00,35.2,21.1,28.55,WSW,248,3.6,4.7,56,0.00,,,0.00,VWS V14.01,2013-11-15 02:15:00,
2013-11-14 20:20:00,34.7,20.6,28.55,WSW,248,2.5,4.7,56,0.00,,,0.00,VWS V14.01,2013-11-15 02:20:00,
2013-11-14 20:25:00,34.3,20.3,28.58,West,270,3.1,3.8,56,0.00,,,0.00,VWS V14.01,2013-11-15 02:25:00,
2013-11-14 20:30:00,34.0,19.5,28.58,WNW,292,3.6,3.6,55,0.00,,,0.00,VWS V14.01,2013-11-15 02:30:00,
2013-11-14 20:35:00,34.2,20.5,28.58,WSW,248,3.4,4.9,57,0.00,,,0.00,VWS V14.01,2013-11-15 02:35:00,
2013-11-14 20:40:00,34.3,21.1,28.55,West,270,3.8,4.5,58,0.00,,,0.00,VWS V14.01,2013-11-15 02:40:00,
2013-11-14 20:45:00,34.0,20.8,28.55,West,270,2.7,4.3,58,0.00,,,0.00,VWS V14.01,2013-11-15 02:45:00,
2013-11-14 20:50:00,33.8,20.6,28.55,WSW,248,2.2,3.6,58,0.00,,,0.00,VWS V14.01,2013-11-15 02:50:00,
2013-11-14 20:55:00,33.6,20.4,28.55,WSW,248,2.5,3.1,58,0.00,,,0.00,VWS V14.01,2013-11-15 02:55:00,
2013-11-14 21:00:00,33.3,20.1,28.55,West,270,2.0,3.1,58,0.00,,,0.00,VWS V14.01,2013-11-15 03:00:00,
2013-11-14 21:05:00,32.9,19.8,28.55,WSW,248,2.0,2.2,58,0.00,,,0.00,VWS V14.01,2013-11-15 03:05:00,
2013-11-14 21:10:00,33.1,20.3,28.55,WSW,248,4.0,4.7,59,0.00,,,0.00,VWS V14.01,2013-11-15 03:10:00,
2013-11-14 21:15:00,33.3,20.9,28.55,WSW,248,4.0,4.3,60,0.00,,,0.00,VWS V14.01,2013-11-15 03:15:00,
2013-11-14 21:20:00,33.3,21.7,28.55,WSW,248,4.3,4.7,62,0.00,,,0.00,VWS V14.01,2013-11-15 03:20:00,
2013-11-14 21:25:00,33.3,22.4,28.55,SW,225,4.9,4.9,64,0.00,,,0.00,VWS V14.01,2013-11-15 03:25:00,
2013-11-14 21:30:00,33.3,23.1,28.55,WSW,248,4.0,5.6,66,0.00,,,0.00,VWS V14.01,2013-11-15 03:30:00,
2013-11-14 21:35:00,33.3,23.5,28.55,WSW,248,4.7,4.7,67,0.00,,,0.00,VWS V14.01,2013-11-15 03:35:00,
2013-11-14 21:40:00,33.3,23.9,28.55,WSW,248,4.0,5.8,68,0.00,,,0.00,VWS V14.01,2013-11-15 03:40:00,
2013-11-14 21:45:00,33.3,24.2,28.55,WSW,248,5.4,5.4,69,0.00,,,0.00,VWS V14.01,2013-11-15 03:45:00,
2013-11-14 21:50:00,33.4,24.7,28.55,WSW,248,4.9,5.8,70,0.00,,,0.00,VWS V14.01,2013-11-15 03:50:00,
2013-11-14 21:55:00,33.4,25.1,28.55,WSW,248,4.3,5.6,71,0.00,,,0.00,VWS V14.01,2013-11-15 03:55:00,
2013-11-14 22:00:00,33.3,24.5,28.55,WNW,292,2.2,4.3,70,0.00,,,0.00,VWS V14.01,2013-11-15 04:00:00,
2013-11-14 22:05:00,33.1,23.7,28.55,WSW,248,1.6,2.7,68,0.00,,,0.00,VWS V14.01,2013-11-15 04:05:00,
2013-11-14 22:10:00,32.7,23.0,28.58,WSW,248,3.4,3.6,67,0.00,,,0.00,VWS V14.01,2013-11-15 04:10:00,
2013-11-14 22:15:00,32.9,23.5,28.58,WSW,248,4.5,4.9,68,0.00,,,0.00,VWS V14.01,2013-11-15 04:15:00,
2013-11-14 22:20:00,32.9,23.5,28.58,WNW,292,2.0,4.7,68,0.00,,,0.00,VWS V14.01,2013-11-15 04:20:00,
2013-11-14 22:25:00,32.2,22.1,28.55,WNW,292,2.7,2.9,66,0.00,,,0.00,VWS V14.01,2013-11-15 04:25:00,
2013-11-14 22:30:00,32.0,21.9,28.55,WNW,292,2.9,2.9,66,0.00,,,0.00,VWS V14.01,2013-11-15 04:30:00,
2013-11-14 22:35:00,31.8,21.8,28.55,WNW,292,2.2,3.1,66,0.00,,,0.00,VWS V14.01,2013-11-15 04:35:00,
2013-11-14 22:40:00,32.0,22.3,28.55,WSW,248,3.1,5.4,67,0.00,,,0.00,VWS V14.01,2013-11-15 04:40:00,
2013-11-14 22:45:00,32.5,23.5,28.55,WNW,292,2.9,4.3,69,0.00,,,0.00,VWS V14.01,2013-11-15 04:45:00,
2013-11-14 22:50:00,32.0,22.3,28.55,WNW,292,2.9,2.9,67,0.00,,,0.00,VWS V14.01,2013-11-15 04:50:00,
2013-11-14 22:55:00,31.3,21.3,28.55,WNW,292,1.6,3.1,66,0.00,,,0.00,VWS V14.01,2013-11-15 04:55:00,
2013-11-14 23:00:00,30.7,20.4,28.55,WNW,292,2.0,2.2,65,0.00,,,0.00,VWS V14.01,2013-11-15 05:00:00,
2013-11-14 23:05:00,30.4,20.4,28.55,WNW,292,2.9,3.1,66,0.00,,,0.00,VWS V14.01,2013-11-15 05:05:00,
2013-11-14 23:10:00,30.2,20.2,28.55,West,270,2.7,2.9,66,0.00,,,0.00,VWS V14.01,2013-11-15 05:10:00,
2013-11-14 23:15:00,30.2,20.2,28.55,WSW,248,2.5,3.1,66,0.00,,,0.00,VWS V14.01,2013-11-15 05:15:00,
2013-11-14 23:20:00,30.2,20.2,28.55,WSW,248,2.0,2.9,66,0.00,,,0.00,VWS V14.01,2013-11-15 05:20:00,
2013-11-14 23:25:00,30.2,20.6,28.55,West,270,2.7,2.9,67,0.00,,,0.00,VWS V14.01,2013-11-15 05:25:00,
2013-11-14 23:30:00,30.4,20.8,28.55,WSW,248,3.1,3.1,67,0.00,,,0.00,VWS V14.01,2013-11-15 05:30:00,
2013-11-14 23:35:00,30.7,21.4,28.55,WSW,248,3.1,3.4,68,0.00,,,0.00,VWS V14.01,2013-11-15 05:35:00,
2013-11-14 23:40:00,30.9,21.6,28.55,West,270,3.1,3.1,68,0.00,,,0.00,VWS V14.01,2013-11-15 05:40:00,
2013-11-14 23:45:00,30.9,21.6,28.55,West,270,2.7,3.4,68,0.00,,,0.00,VWS V14.01,2013-11-15 05:45:00,
2013-11-14 23:50:00,30.2,20.6,28.55,WSW,248,2.7,3.1,67,0.00,,,0.00,VWS V14.01,2013-11-15 05:50:00,
2013-11-14 23:55:00,30.0,20.4,28.58,WSW,248,4.0,4.3,67,0.00,,,0.00,VWS V14.01,2013-11-15 05:55:00,